sensor_id;sensor_type;location;lat;lon;timestamp;temperature;humidity
51922;DHT22;37948;53.260;6.394;2023-02-01T00:01:12;5.90;99.90
51922;DHT22;37948;53.260;6.394;2023-02-01T00:03:38;5.90;99.90
51922;DHT22;37948;53.260;6.394;2023-02-01T00:06:03;5.90;99.90
51922;DHT22;37948;53.260;6.394;2023-02-01T00:08:29;5.90;99.90
51922;DHT22;37948;53.260;6.394;2023-02-01T00:11:03;5.90;99.90
51922;DHT22;37948;53.260;6.394;2023-02-01T00:13:31;5.90;99.90
51922;DHT22;37948;53.260;6.394;2023-02-01T00:18:29;5.90;99.90
51922;DHT22;37948;53.260;6.394;2023-02-01T00:20:55;5.90;99.90
51922;DHT22;37948;53.260;6.394;2023-02-01T00:23:20;5.90;99.90
51922;DHT22;37948;53.260;6.394;2023-02-01T00:25:46;5.90;99.90
51922;DHT22;37948;53.260;6.394;2023-02-01T00:28:11;5.90;99.90
51922;DHT22;37948;53.260;6.394;2023-02-01T00:30:38;5.90;99.90
51922;DHT22;37948;53.260;6.394;2023-02-01T00:33:04;5.90;99.90
51922;DHT22;37948;53.260;6.394;2023-02-01T00:35:30;6.00;99.90
51922;DHT22;37948;53.260;6.394;2023-02-01T00:37:55;6.00;99.90
51922;DHT22;37948;53.260;6.394;2023-02-01T00:40:23;6.00;99.90
51922;DHT22;37948;53.260;6.394;2023-02-01T00:42:49;6.00;99.90
51922;DHT22;37948;53.260;6.394;2023-02-01T00:45:15;6.00;99.90
51922;DHT22;37948;53.260;6.394;2023-02-01T00:47:41;6.00;99.90
51922;DHT22;37948;53.260;6.394;2023-02-01T00:50:07;6.00;99.90
51922;DHT22;37948;53.260;6.394;2023-02-01T00:52:33;6.00;99.90
51922;DHT22;37948;53.260;6.394;2023-02-01T00:54:58;6.00;99.90
51922;DHT22;37948;53.260;6.394;2023-02-01T00:57:24;6.00;99.90
51922;DHT22;37948;53.260;6.394;2023-02-01T00:59:49;6.00;99.90
51922;DHT22;37948;53.260;6.394;2023-02-01T01:02:15;6.00;99.90
51922;DHT22;37948;53.260;6.394;2023-02-01T01:04:40;6.00;99.90
51922;DHT22;37948;53.260;6.394;2023-02-01T01:07:06;6.00;99.90
51922;DHT22;37948;53.260;6.394;2023-02-01T01:09:32;6.00;99.90
51922;DHT22;37948;53.260;6.394;2023-02-01T01:11:57;6.00;99.90
51922;DHT22;37948;53.260;6.394;2023-02-01T01:14:28;6.00;99.90
51922;DHT22;37948;53.260;6.394;2023-02-01T01:16:54;6.00;99.90
51922;DHT22;37948;53.260;6.394;2023-02-01T01:19:19;6.00;99.90
51922;DHT22;37948;53.260;6.394;2023-02-01T01:21:45;6.00;99.90
51922;DHT22;37948;53.260;6.394;2023-02-01T01:24:10;6.00;99.90
51922;DHT22;37948;53.260;6.394;2023-02-01T01:26:36;6.10;99.90
51922;DHT22;37948;53.260;6.394;2023-02-01T01:29:02;6.10;99.90
51922;DHT22;37948;53.260;6.394;2023-02-01T01:31:28;6.10;99.90
51922;DHT22;37948;53.260;6.394;2023-02-01T01:33:56;6.10;99.90
51922;DHT22;37948;53.260;6.394;2023-02-01T01:36:22;6.10;99.90
51922;DHT22;37948;53.260;6.394;2023-02-01T01:38:48;6.10;99.90
51922;DHT22;37948;53.260;6.394;2023-02-01T01:41:17;6.10;99.90
51922;DHT22;37948;53.260;6.394;2023-02-01T01:46:19;6.00;99.90
51922;DHT22;37948;53.260;6.394;2023-02-01T01:48:47;6.00;99.90
51922;DHT22;37948;53.260;6.394;2023-02-01T01:51:14;5.90;99.90
51922;DHT22;37948;53.260;6.394;2023-02-01T01:53:47;5.90;99.90
51922;DHT22;37948;53.260;6.394;2023-02-01T01:56:14;5.90;99.90
51922;DHT22;37948;53.260;6.394;2023-02-01T01:58:40;5.80;99.90
51922;DHT22;37948;53.260;6.394;2023-02-01T02:01:06;5.80;99.90
51922;DHT22;37948;53.260;6.394;2023-02-01T02:03:40;5.80;99.90
51922;DHT22;37948;53.260;6.394;2023-02-01T02:06:30;5.80;99.90
51922;DHT22;37948;53.260;6.394;2023-02-01T02:08:59;5.80;99.90
51922;DHT22;37948;53.260;6.394;2023-02-01T02:11:24;5.80;99.90
51922;DHT22;37948;53.260;6.394;2023-02-01T02:13:52;5.70;99.90
51922;DHT22;37948;53.260;6.394;2023-02-01T02:16:43;5.70;99.90
51922;DHT22;37948;53.260;6.394;2023-02-01T02:36:03;5.70;99.90
51922;DHT22;37948;53.260;6.394;2023-02-01T02:41:49;5.70;99.90
51922;DHT22;37948;53.260;6.394;2023-02-01T02:44:47;5.70;99.90
51922;DHT22;37948;53.260;6.394;2023-02-01T02:47:33;5.70;99.90
51922;DHT22;37948;53.260;6.394;2023-02-01T02:53:16;5.70;99.90
51922;DHT22;37948;53.260;6.394;2023-02-01T02:56:03;5.70;99.90
51922;DHT22;37948;53.260;6.394;2023-02-01T02:58:50;5.80;99.90
51922;DHT22;37948;53.260;6.394;2023-02-01T03:01:34;5.80;99.90
51922;DHT22;37948;53.260;6.394;2023-02-01T03:04:19;5.80;99.90
51922;DHT22;37948;53.260;6.394;2023-02-01T03:06:46;5.80;99.90
51922;DHT22;37948;53.260;6.394;2023-02-01T03:09:31;5.80;99.90
51922;DHT22;37948;53.260;6.394;2023-02-01T03:12:03;5.80;99.90
51922;DHT22;37948;53.260;6.394;2023-02-01T03:14:52;5.90;99.90
51922;DHT22;37948;53.260;6.394;2023-02-01T03:17:24;5.90;99.90
51922;DHT22;37948;53.260;6.394;2023-02-01T03:19:53;5.90;99.90
51922;DHT22;37948;53.260;6.394;2023-02-01T03:22:24;5.90;99.90
51922;DHT22;37948;53.260;6.394;2023-02-01T03:24:54;5.90;99.90
51922;DHT22;37948;53.260;6.394;2023-02-01T03:30:06;5.90;99.90
51922;DHT22;37948;53.260;6.394;2023-02-01T03:32:34;6.00;99.90
51922;DHT22;37948;53.260;6.394;2023-02-01T03:35:56;6.00;99.90
51922;DHT22;37948;53.260;6.394;2023-02-01T03:38:21;6.00;99.90
51922;DHT22;37948;53.260;6.394;2023-02-01T03:40:58;6.00;99.90
51922;DHT22;37948;53.260;6.394;2023-02-01T03:43:27;6.00;99.90
51922;DHT22;37948;53.260;6.394;2023-02-01T03:46:00;6.00;99.90
51922;DHT22;37948;53.260;6.394;2023-02-01T03:48:28;6.00;99.90
51922;DHT22;37948;53.260;6.394;2023-02-01T03:50:57;6.00;99.90
51922;DHT22;37948;53.260;6.394;2023-02-01T03:53:24;6.00;99.90
51922;DHT22;37948;53.260;6.394;2023-02-01T03:55:52;6.00;99.90
51922;DHT22;37948;53.260;6.394;2023-02-01T03:58:20;5.90;99.90
51922;DHT22;37948;53.260;6.394;2023-02-01T04:00:55;5.90;99.90
51922;DHT22;37948;53.260;6.394;2023-02-01T04:03:22;5.90;99.90
51922;DHT22;37948;53.260;6.394;2023-02-01T04:05:49;5.80;99.90
51922;DHT22;37948;53.260;6.394;2023-02-01T04:08:14;5.90;99.90
51922;DHT22;37948;53.260;6.394;2023-02-01T04:10:40;5.90;99.90
51922;DHT22;37948;53.260;6.394;2023-02-01T04:13:06;5.90;99.90
51922;DHT22;37948;53.260;6.394;2023-02-01T04:15:32;5.90;99.90
51922;DHT22;37948;53.260;6.394;2023-02-01T04:17:59;5.90;99.90
51922;DHT22;37948;53.260;6.394;2023-02-01T04:20:24;6.00;99.90
51922;DHT22;37948;53.260;6.394;2023-02-01T04:22:50;6.00;99.90
51922;DHT22;37948;53.260;6.394;2023-02-01T04:25:15;6.00;99.90
51922;DHT22;37948;53.260;6.394;2023-02-01T04:27:42;6.00;99.90
51922;DHT22;37948;53.260;6.394;2023-02-01T04:30:08;5.90;99.90
51922;DHT22;37948;53.260;6.394;2023-02-01T04:32:38;5.90;99.90
51922;DHT22;37948;53.260;6.394;2023-02-01T04:35:04;5.80;99.90
51922;DHT22;37948;53.260;6.394;2023-02-01T04:37:30;5.80;99.90
51922;DHT22;37948;53.260;6.394;2023-02-01T04:39:56;5.80;99.90
51922;DHT22;37948;53.260;6.394;2023-02-01T04:42:21;5.90;99.90
51922;DHT22;37948;53.260;6.394;2023-02-01T04:44:47;5.90;99.90
51922;DHT22;37948;53.260;6.394;2023-02-01T04:47:13;5.80;99.90
51922;DHT22;37948;53.260;6.394;2023-02-01T04:49:39;5.80;99.90
51922;DHT22;37948;53.260;6.394;2023-02-01T04:52:05;5.80;99.90
51922;DHT22;37948;53.260;6.394;2023-02-01T04:54:31;5.80;99.90
51922;DHT22;37948;53.260;6.394;2023-02-01T04:56:56;5.70;99.90
51922;DHT22;37948;53.260;6.394;2023-02-01T04:59:22;5.70;99.90
51922;DHT22;37948;53.260;6.394;2023-02-01T05:01:48;5.80;99.90
51922;DHT22;37948;53.260;6.394;2023-02-01T05:04:13;5.80;99.90
51922;DHT22;37948;53.260;6.394;2023-02-01T05:06:39;5.80;99.90
51922;DHT22;37948;53.260;6.394;2023-02-01T05:09:04;5.70;99.90
51922;DHT22;37948;53.260;6.394;2023-02-01T05:11:30;5.80;99.90
51922;DHT22;37948;53.260;6.394;2023-02-01T05:14:14;5.80;99.90
51922;DHT22;37948;53.260;6.394;2023-02-01T05:16:40;5.80;99.90
51922;DHT22;37948;53.260;6.394;2023-02-01T05:19:05;5.80;99.90
51922;DHT22;37948;53.260;6.394;2023-02-01T05:21:31;5.80;99.90
51922;DHT22;37948;53.260;6.394;2023-02-01T05:23:56;5.90;99.90
51922;DHT22;37948;53.260;6.394;2023-02-01T05:26:35;5.90;99.90
51922;DHT22;37948;53.260;6.394;2023-02-01T05:29:01;5.90;99.90
51922;DHT22;37948;53.260;6.394;2023-02-01T05:31:26;5.90;99.90
51922;DHT22;37948;53.260;6.394;2023-02-01T05:33:52;6.00;99.90
51922;DHT22;37948;53.260;6.394;2023-02-01T05:36:18;6.00;99.90
51922;DHT22;37948;53.260;6.394;2023-02-01T05:38:44;6.00;99.90
51922;DHT22;37948;53.260;6.394;2023-02-01T05:41:09;6.00;99.90
51922;DHT22;37948;53.260;6.394;2023-02-01T05:43:35;6.10;99.90
51922;DHT22;37948;53.260;6.394;2023-02-01T05:46:01;6.10;99.90
51922;DHT22;37948;53.260;6.394;2023-02-01T05:48:26;6.10;99.90
51922;DHT22;37948;53.260;6.394;2023-02-01T05:50:52;6.10;99.90
51922;DHT22;37948;53.260;6.394;2023-02-01T05:53:17;6.00;99.90
51922;DHT22;37948;53.260;6.394;2023-02-01T05:55:43;6.00;99.90
51922;DHT22;37948;53.260;6.394;2023-02-01T05:58:09;6.00;99.90
51922;DHT22;37948;53.260;6.394;2023-02-01T06:00:34;5.90;99.90
51922;DHT22;37948;53.260;6.394;2023-02-01T06:03:00;6.00;99.90
51922;DHT22;37948;53.260;6.394;2023-02-01T06:05:26;6.00;99.90
51922;DHT22;37948;53.260;6.394;2023-02-01T06:07:52;6.00;99.90
51922;DHT22;37948;53.260;6.394;2023-02-01T06:10:18;6.00;99.90
51922;DHT22;37948;53.260;6.394;2023-02-01T06:12:45;6.00;99.90
51922;DHT22;37948;53.260;6.394;2023-02-01T06:15:12;6.00;99.90
51922;DHT22;37948;53.260;6.394;2023-02-01T06:17:38;6.00;99.90
51922;DHT22;37948;53.260;6.394;2023-02-01T06:20:07;5.90;99.90
51922;DHT22;37948;53.260;6.394;2023-02-01T06:22:33;5.90;99.90
51922;DHT22;37948;53.260;6.394;2023-02-01T06:25:05;5.90;99.90
51922;DHT22;37948;53.260;6.394;2023-02-01T06:27:32;5.90;99.90
51922;DHT22;37948;53.260;6.394;2023-02-01T06:29:57;6.00;99.90
51922;DHT22;37948;53.260;6.394;2023-02-01T06:32:23;6.00;99.90
51922;DHT22;37948;53.260;6.394;2023-02-01T06:34:49;6.00;99.90
51922;DHT22;37948;53.260;6.394;2023-02-01T06:37:15;5.90;99.90
51922;DHT22;37948;53.260;6.394;2023-02-01T06:39:40;5.90;99.90
51922;DHT22;37948;53.260;6.394;2023-02-01T06:42:06;5.90;99.90
51922;DHT22;37948;53.260;6.394;2023-02-01T06:44:32;6.00;99.90
51922;DHT22;37948;53.260;6.394;2023-02-01T06:46:57;6.00;99.90
51922;DHT22;37948;53.260;6.394;2023-02-01T06:49:23;6.00;99.90
51922;DHT22;37948;53.260;6.394;2023-02-01T06:51:48;6.00;99.90
51922;DHT22;37948;53.260;6.394;2023-02-01T06:54:14;6.10;99.90
51922;DHT22;37948;53.260;6.394;2023-02-01T06:56:40;6.10;99.90
51922;DHT22;37948;53.260;6.394;2023-02-01T06:59:06;6.10;99.90
51922;DHT22;37948;53.260;6.394;2023-02-01T07:01:32;6.10;99.90
51922;DHT22;37948;53.260;6.394;2023-02-01T07:03:58;6.10;99.90
51922;DHT22;37948;53.260;6.394;2023-02-01T07:06:24;6.10;99.90
51922;DHT22;37948;53.260;6.394;2023-02-01T07:08:50;6.10;99.90
51922;DHT22;37948;53.260;6.394;2023-02-01T07:11:19;6.10;99.90
51922;DHT22;37948;53.260;6.394;2023-02-01T07:13:45;6.10;99.90
51922;DHT22;37948;53.260;6.394;2023-02-01T07:16:13;6.10;99.90
51922;DHT22;37948;53.260;6.394;2023-02-01T07:18:39;6.10;99.90
51922;DHT22;37948;53.260;6.394;2023-02-01T07:21:04;6.10;99.90
51922;DHT22;37948;53.260;6.394;2023-02-01T07:23:30;6.10;99.90
51922;DHT22;37948;53.260;6.394;2023-02-01T07:25:58;6.00;99.90
51922;DHT22;37948;53.260;6.394;2023-02-01T07:28:24;6.00;99.90
51922;DHT22;37948;53.260;6.394;2023-02-01T07:30:50;6.00;99.90
51922;DHT22;37948;53.260;6.394;2023-02-01T07:33:22;6.00;99.90
51922;DHT22;37948;53.260;6.394;2023-02-01T07:35:49;6.00;99.90
51922;DHT22;37948;53.260;6.394;2023-02-01T07:38:15;6.00;99.90
51922;DHT22;37948;53.260;6.394;2023-02-01T07:40:41;6.00;99.90
51922;DHT22;37948;53.260;6.394;2023-02-01T07:43:07;6.00;99.90
51922;DHT22;37948;53.260;6.394;2023-02-01T07:45:34;6.00;99.90
51922;DHT22;37948;53.260;6.394;2023-02-01T07:48:00;6.00;99.90
51922;DHT22;37948;53.260;6.394;2023-02-01T07:50:26;6.00;99.90
51922;DHT22;37948;53.260;6.394;2023-02-01T07:52:52;6.00;99.90
51922;DHT22;37948;53.260;6.394;2023-02-01T07:55:19;6.00;99.90
51922;DHT22;37948;53.260;6.394;2023-02-01T07:57:45;6.00;99.90
51922;DHT22;37948;53.260;6.394;2023-02-01T08:00:11;6.00;99.90
51922;DHT22;37948;53.260;6.394;2023-02-01T08:02:58;6.00;99.90
51922;DHT22;37948;53.260;6.394;2023-02-01T08:05:23;6.00;99.90
51922;DHT22;37948;53.260;6.394;2023-02-01T08:07:49;6.10;99.90
51922;DHT22;37948;53.260;6.394;2023-02-01T08:10:16;6.10;99.90
51922;DHT22;37948;53.260;6.394;2023-02-01T08:12:42;6.00;99.90
51922;DHT22;37948;53.260;6.394;2023-02-01T08:15:08;6.10;99.90
51922;DHT22;37948;53.260;6.394;2023-02-01T08:17:33;6.10;99.90
51922;DHT22;37948;53.260;6.394;2023-02-01T08:19:59;6.10;99.90
51922;DHT22;37948;53.260;6.394;2023-02-01T08:22:24;6.10;99.90
51922;DHT22;37948;53.260;6.394;2023-02-01T08:24:50;6.10;99.90
51922;DHT22;37948;53.260;6.394;2023-02-01T08:27:17;6.10;99.90
51922;DHT22;37948;53.260;6.394;2023-02-01T08:29:42;6.10;99.90
51922;DHT22;37948;53.260;6.394;2023-02-01T08:32:08;6.10;99.90
51922;DHT22;37948;53.260;6.394;2023-02-01T08:34:33;6.10;99.90
51922;DHT22;37948;53.260;6.394;2023-02-01T08:36:59;6.10;99.90
51922;DHT22;37948;53.260;6.394;2023-02-01T08:39:26;6.10;99.90
51922;DHT22;37948;53.260;6.394;2023-02-01T08:41:52;6.10;99.90
51922;DHT22;37948;53.260;6.394;2023-02-01T08:44:36;6.20;99.90
51922;DHT22;37948;53.260;6.394;2023-02-01T08:47:03;6.20;99.90
51922;DHT22;37948;53.260;6.394;2023-02-01T08:49:28;6.20;99.90
51922;DHT22;37948;53.260;6.394;2023-02-01T08:51:54;6.20;99.90
51922;DHT22;37948;53.260;6.394;2023-02-01T08:54:21;6.20;99.90
51922;DHT22;37948;53.260;6.394;2023-02-01T08:56:46;6.20;99.90
51922;DHT22;37948;53.260;6.394;2023-02-01T08:59:12;6.20;99.90
51922;DHT22;37948;53.260;6.394;2023-02-01T09:01:37;6.20;99.90
51922;DHT22;37948;53.260;6.394;2023-02-01T09:04:03;6.20;99.90
51922;DHT22;37948;53.260;6.394;2023-02-01T09:06:29;6.20;99.90
51922;DHT22;37948;53.260;6.394;2023-02-01T09:08:54;6.20;99.90
51922;DHT22;37948;53.260;6.394;2023-02-01T09:11:20;6.20;99.90
51922;DHT22;37948;53.260;6.394;2023-02-01T09:13:47;6.20;99.90
51922;DHT22;37948;53.260;6.394;2023-02-01T09:16:13;6.20;99.90
51922;DHT22;37948;53.260;6.394;2023-02-01T09:18:38;6.20;99.90
51922;DHT22;37948;53.260;6.394;2023-02-01T09:21:05;6.20;99.90
51922;DHT22;37948;53.260;6.394;2023-02-01T09:23:31;6.20;99.90
51922;DHT22;37948;53.260;6.394;2023-02-01T09:26:01;6.30;99.90
51922;DHT22;37948;53.260;6.394;2023-02-01T09:28:27;6.30;99.90
51922;DHT22;37948;53.260;6.394;2023-02-01T09:31:00;6.30;99.90
51922;DHT22;37948;53.260;6.394;2023-02-01T09:33:27;6.30;99.90
51922;DHT22;37948;53.260;6.394;2023-02-01T09:36:01;6.30;99.90
51922;DHT22;37948;53.260;6.394;2023-02-01T09:38:28;6.40;99.90
51922;DHT22;37948;53.260;6.394;2023-02-01T09:40:54;6.40;99.90
51922;DHT22;37948;53.260;6.394;2023-02-01T09:46:16;6.30;99.90
51922;DHT22;37948;53.260;6.394;2023-02-01T09:48:45;6.40;99.90
51922;DHT22;37948;53.260;6.394;2023-02-01T09:51:20;6.30;99.90
51922;DHT22;37948;53.260;6.394;2023-02-01T09:54:01;6.30;99.90
51922;DHT22;37948;53.260;6.394;2023-02-01T09:56:42;6.30;99.90
51922;DHT22;37948;53.260;6.394;2023-02-01T09:59:42;6.30;99.90
51922;DHT22;37948;53.260;6.394;2023-02-01T10:02:22;6.30;99.90
51922;DHT22;37948;53.260;6.394;2023-02-01T10:04:49;6.20;99.90
51922;DHT22;37948;53.260;6.394;2023-02-01T10:18:41;6.10;99.90
51922;DHT22;37948;53.260;6.394;2023-02-01T10:26:54;6.10;99.90
51922;DHT22;37948;53.260;6.394;2023-02-01T10:29:26;6.10;99.90
51922;DHT22;37948;53.260;6.394;2023-02-01T10:31:52;6.10;99.90
51922;DHT22;37948;53.260;6.394;2023-02-01T10:34:26;6.20;99.90
51922;DHT22;37948;53.260;6.394;2023-02-01T10:37:00;6.20;99.90
51922;DHT22;37948;53.260;6.394;2023-02-01T10:39:26;6.30;99.90
51922;DHT22;37948;53.260;6.394;2023-02-01T10:41:52;6.30;99.90
51922;DHT22;37948;53.260;6.394;2023-02-01T10:44:25;6.40;99.90
51922;DHT22;37948;53.260;6.394;2023-02-01T10:46:51;6.40;99.90
51922;DHT22;37948;53.260;6.394;2023-02-01T10:52:16;6.60;99.90
51922;DHT22;37948;53.260;6.394;2023-02-01T10:54:43;6.60;99.90
51922;DHT22;37948;53.260;6.394;2023-02-01T10:57:22;6.60;99.90
51922;DHT22;37948;53.260;6.394;2023-02-01T10:59:54;6.60;99.90
51922;DHT22;37948;53.260;6.394;2023-02-01T11:04:46;6.50;99.90
51922;DHT22;37948;53.260;6.394;2023-02-01T11:07:23;6.50;99.90
51922;DHT22;37948;53.260;6.394;2023-02-01T11:09:52;6.40;99.90
51922;DHT22;37948;53.260;6.394;2023-02-01T11:15:39;6.40;99.90
51922;DHT22;37948;53.260;6.394;2023-02-01T11:17:47;6.40;99.90
51922;DHT22;37948;53.260;6.394;2023-02-01T11:20:15;6.40;99.90
51922;DHT22;37948;53.260;6.394;2023-02-01T11:22:52;6.30;99.90
51922;DHT22;37948;53.260;6.394;2023-02-01T11:25:19;6.30;99.90
51922;DHT22;37948;53.260;6.394;2023-02-01T11:27:47;6.30;99.90
51922;DHT22;37948;53.260;6.394;2023-02-01T11:30:19;6.30;99.90
51922;DHT22;37948;53.260;6.394;2023-02-01T11:32:48;6.40;99.90
51922;DHT22;37948;53.260;6.394;2023-02-01T11:35:20;6.50;99.90
51922;DHT22;37948;53.260;6.394;2023-02-01T11:37:54;6.50;99.90
51922;DHT22;37948;53.260;6.394;2023-02-01T11:45:40;6.70;99.90
51922;DHT22;37948;53.260;6.394;2023-02-01T11:48:14;6.80;99.90
51922;DHT22;37948;53.260;6.394;2023-02-01T12:04:29;7.00;99.90
51922;DHT22;37948;53.260;6.394;2023-02-01T12:07:11;7.10;99.90
51922;DHT22;37948;53.260;6.394;2023-02-01T12:12:25;7.10;99.90
51922;DHT22;37948;53.260;6.394;2023-02-01T12:15:16;7.20;99.90
51922;DHT22;37948;53.260;6.394;2023-02-01T12:18:16;7.20;99.90
51922;DHT22;37948;53.260;6.394;2023-02-01T12:21:00;7.20;99.90
51922;DHT22;37948;53.260;6.394;2023-02-01T12:33:42;7.50;99.90
51922;DHT22;37948;53.260;6.394;2023-02-01T12:36:40;7.60;99.90
51922;DHT22;37948;53.260;6.394;2023-02-01T12:39:16;7.50;99.90
51922;DHT22;37948;53.260;6.394;2023-02-01T12:42:03;7.40;99.90
51922;DHT22;37948;53.260;6.394;2023-02-01T12:44:55;7.40;99.90
51922;DHT22;37948;53.260;6.394;2023-02-01T12:47:41;7.30;99.90
51922;DHT22;37948;53.260;6.394;2023-02-01T12:50:19;7.30;99.90
51922;DHT22;37948;53.260;6.394;2023-02-01T12:52:55;7.30;99.90
51922;DHT22;37948;53.260;6.394;2023-02-01T12:55:25;7.40;99.90
51922;DHT22;37948;53.260;6.394;2023-02-01T12:57:58;7.40;99.90
51922;DHT22;37948;53.260;6.394;2023-02-01T13:00:35;7.40;99.90
51922;DHT22;37948;53.260;6.394;2023-02-01T13:06:08;7.50;99.90
51922;DHT22;37948;53.260;6.394;2023-02-01T13:08:57;7.50;99.90
51922;DHT22;37948;53.260;6.394;2023-02-01T13:11:29;7.50;99.90
51922;DHT22;37948;53.260;6.394;2023-02-01T13:14:01;7.50;99.90
51922;DHT22;37948;53.260;6.394;2023-02-01T13:16:37;7.50;99.90
51922;DHT22;37948;53.260;6.394;2023-02-01T13:21:48;7.50;99.90
51922;DHT22;37948;53.260;6.394;2023-02-01T13:24:40;7.60;99.90
51922;DHT22;37948;53.260;6.394;2023-02-01T13:27:10;7.60;99.90
51922;DHT22;37948;53.260;6.394;2023-02-01T13:29:54;7.60;99.90
51922;DHT22;37948;53.260;6.394;2023-02-01T13:32:46;7.60;99.90
51922;DHT22;37948;53.260;6.394;2023-02-01T13:35:26;7.60;99.90
51922;DHT22;37948;53.260;6.394;2023-02-01T13:38:14;7.50;99.90
51922;DHT22;37948;53.260;6.394;2023-02-01T13:41:03;7.50;99.90
51922;DHT22;37948;53.260;6.394;2023-02-01T13:43:33;7.60;99.90
51922;DHT22;37948;53.260;6.394;2023-02-01T13:46:05;7.50;99.90
51922;DHT22;37948;53.260;6.394;2023-02-01T13:48:53;7.50;99.90
51922;DHT22;37948;53.260;6.394;2023-02-01T13:51:33;7.50;99.90
51922;DHT22;37948;53.260;6.394;2023-02-01T13:53:59;7.50;99.90
51922;DHT22;37948;53.260;6.394;2023-02-01T13:56:26;7.50;99.90
51922;DHT22;37948;53.260;6.394;2023-02-01T13:58:52;7.50;99.90
51922;DHT22;37948;53.260;6.394;2023-02-01T14:03:54;7.50;99.90
51922;DHT22;37948;53.260;6.394;2023-02-01T14:11:50;7.40;99.90
51922;DHT22;37948;53.260;6.394;2023-02-01T14:16:44;7.30;99.90
51922;DHT22;37948;53.260;6.394;2023-02-01T14:19:31;7.30;99.90
51922;DHT22;37948;53.260;6.394;2023-02-01T14:21:59;7.30;99.90
51922;DHT22;37948;53.260;6.394;2023-02-01T14:24:34;7.30;99.90
51922;DHT22;37948;53.260;6.394;2023-02-01T14:27:06;7.30;99.90
51922;DHT22;37948;53.260;6.394;2023-02-01T14:29:41;7.30;99.90
51922;DHT22;37948;53.260;6.394;2023-02-01T14:32:15;7.30;99.90
51922;DHT22;37948;53.260;6.394;2023-02-01T14:58:24;7.10;99.90
51922;DHT22;37948;53.260;6.394;2023-02-01T15:00:56;7.10;99.90
51922;DHT22;37948;53.260;6.394;2023-02-01T15:05:57;7.00;99.90
51922;DHT22;37948;53.260;6.394;2023-02-01T15:08:30;7.10;99.90
51922;DHT22;37948;53.260;6.394;2023-02-01T15:10:57;7.10;99.90
51922;DHT22;37948;53.260;6.394;2023-02-01T15:13:26;7.10;99.90
51922;DHT22;37948;53.260;6.394;2023-02-01T15:16:10;7.10;99.90
51922;DHT22;37948;53.260;6.394;2023-02-01T15:18:37;7.10;99.90
51922;DHT22;37948;53.260;6.394;2023-02-01T15:21:04;7.20;99.90
51922;DHT22;37948;53.260;6.394;2023-02-01T15:23:31;7.20;99.90
51922;DHT22;37948;53.260;6.394;2023-02-01T15:25:56;7.20;99.90
51922;DHT22;37948;53.260;6.394;2023-02-01T15:28:23;7.20;99.90
51922;DHT22;37948;53.260;6.394;2023-02-01T15:31:03;7.10;99.90
51922;DHT22;37948;53.260;6.394;2023-02-01T15:33:30;7.20;99.90
51922;DHT22;37948;53.260;6.394;2023-02-01T15:38:34;7.10;99.90
51922;DHT22;37948;53.260;6.394;2023-02-01T15:41:07;7.10;99.90
51922;DHT22;37948;53.260;6.394;2023-02-01T15:43:48;7.10;99.90
51922;DHT22;37948;53.260;6.394;2023-02-01T15:46:39;7.00;99.90
51922;DHT22;37948;53.260;6.394;2023-02-01T15:49:20;7.00;99.90
51922;DHT22;37948;53.260;6.394;2023-02-01T15:51:48;7.00;99.90
51922;DHT22;37948;53.260;6.394;2023-02-01T15:54:27;7.00;99.90
51922;DHT22;37948;53.260;6.394;2023-02-01T15:56:57;6.90;99.90
51922;DHT22;37948;53.260;6.394;2023-02-01T15:59:29;6.90;99.90
51922;DHT22;37948;53.260;6.394;2023-02-01T16:01:56;6.80;99.90
51922;DHT22;37948;53.260;6.394;2023-02-01T16:04:26;6.80;99.90
51922;DHT22;37948;53.260;6.394;2023-02-01T16:07:00;6.70;99.90
51922;DHT22;37948;53.260;6.394;2023-02-01T16:09:54;6.70;99.90
51922;DHT22;37948;53.260;6.394;2023-02-01T16:15:04;6.60;99.90
51922;DHT22;37948;53.260;6.394;2023-02-01T16:17:30;6.60;99.90
51922;DHT22;37948;53.260;6.394;2023-02-01T16:19:56;6.60;99.90
51922;DHT22;37948;53.260;6.394;2023-02-01T16:22:23;6.60;99.90
51922;DHT22;37948;53.260;6.394;2023-02-01T16:24:49;6.60;99.90
51922;DHT22;37948;53.260;6.394;2023-02-01T16:27:15;6.50;99.90
51922;DHT22;37948;53.260;6.394;2023-02-01T16:29:40;6.50;99.90
51922;DHT22;37948;53.260;6.394;2023-02-01T16:32:08;6.50;99.90
51922;DHT22;37948;53.260;6.394;2023-02-01T16:34:37;6.50;99.90
51922;DHT22;37948;53.260;6.394;2023-02-01T16:37:03;6.40;99.90
51922;DHT22;37948;53.260;6.394;2023-02-01T16:39:29;6.40;99.90
51922;DHT22;37948;53.260;6.394;2023-02-01T16:41:58;6.40;99.90
51922;DHT22;37948;53.260;6.394;2023-02-01T16:44:24;6.40;99.90
51922;DHT22;37948;53.260;6.394;2023-02-01T16:46:50;6.30;99.90
51922;DHT22;37948;53.260;6.394;2023-02-01T16:49:23;6.30;99.90
51922;DHT22;37948;53.260;6.394;2023-02-01T16:51:51;6.20;99.90
51922;DHT22;37948;53.260;6.394;2023-02-01T16:54:19;6.20;99.90
51922;DHT22;37948;53.260;6.394;2023-02-01T16:56:45;6.30;99.90
51922;DHT22;37948;53.260;6.394;2023-02-01T16:59:11;6.20;99.90
51922;DHT22;37948;53.260;6.394;2023-02-01T17:01:37;6.20;99.90
51922;DHT22;37948;53.260;6.394;2023-02-01T17:04:04;6.30;99.90
51922;DHT22;37948;53.260;6.394;2023-02-01T17:06:30;6.30;99.90
51922;DHT22;37948;53.260;6.394;2023-02-01T17:08:58;6.30;99.90
51922;DHT22;37948;53.260;6.394;2023-02-01T17:11:25;6.30;99.90
51922;DHT22;37948;53.260;6.394;2023-02-01T17:13:51;6.30;99.90
51922;DHT22;37948;53.260;6.394;2023-02-01T17:18:42;6.30;99.90
51922;DHT22;37948;53.260;6.394;2023-02-01T17:21:09;6.30;99.90
51922;DHT22;37948;53.260;6.394;2023-02-01T17:23:35;6.30;99.90
51922;DHT22;37948;53.260;6.394;2023-02-01T17:26:01;6.30;99.90
51922;DHT22;37948;53.260;6.394;2023-02-01T17:28:27;6.20;99.90
51922;DHT22;37948;53.260;6.394;2023-02-01T17:30:54;6.20;99.90
51922;DHT22;37948;53.260;6.394;2023-02-01T17:35:55;6.20;99.90
51922;DHT22;37948;53.260;6.394;2023-02-01T17:38:21;6.20;99.90
51922;DHT22;37948;53.260;6.394;2023-02-01T17:40:47;6.20;99.90
51922;DHT22;37948;53.260;6.394;2023-02-01T17:43:14;6.20;99.90
51922;DHT22;37948;53.260;6.394;2023-02-01T17:45:54;6.20;99.90
51922;DHT22;37948;53.260;6.394;2023-02-01T17:48:21;6.20;99.90
51922;DHT22;37948;53.260;6.394;2023-02-01T17:50:50;6.20;99.90
51922;DHT22;37948;53.260;6.394;2023-02-01T17:53:19;6.20;99.90
51922;DHT22;37948;53.260;6.394;2023-02-01T17:55:49;6.20;99.90
51922;DHT22;37948;53.260;6.394;2023-02-01T17:58:16;6.20;99.90
51922;DHT22;37948;53.260;6.394;2023-02-01T18:00:42;6.20;99.90
51922;DHT22;37948;53.260;6.394;2023-02-01T18:05:43;6.20;99.90
51922;DHT22;37948;53.260;6.394;2023-02-01T18:08:19;6.20;99.90
51922;DHT22;37948;53.260;6.394;2023-02-01T18:10:50;6.20;99.90
51922;DHT22;37948;53.260;6.394;2023-02-01T18:13:16;6.20;99.90
51922;DHT22;37948;53.260;6.394;2023-02-01T18:15:42;6.20;99.90
51922;DHT22;37948;53.260;6.394;2023-02-01T18:18:07;6.30;99.90
51922;DHT22;37948;53.260;6.394;2023-02-01T18:20:33;6.30;99.90
51922;DHT22;37948;53.260;6.394;2023-02-01T18:23:00;6.30;99.90
51922;DHT22;37948;53.260;6.394;2023-02-01T18:25:28;6.20;99.90
51922;DHT22;37948;53.260;6.394;2023-02-01T18:27:55;6.30;99.90